sensor_id;sensor_type;location;lat;lon;timestamp;P1;durP1;ratioP1;P2;durP2;ratioP2
42600;SDS011;28229;48.856;9.088;2023-03-12T00:02:03;7.63;;;6.30;;
42600;SDS011;28229;48.856;9.088;2023-03-12T00:04:30;10.20;;;6.20;;
42600;SDS011;28229;48.856;9.088;2023-03-12T00:06:57;6.27;;;4.90;;
42600;SDS011;28229;48.856;9.088;2023-03-12T00:09:23;7.97;;;5.47;;
42600;SDS011;28229;48.856;9.088;2023-03-12T00:11:49;6.83;;;4.87;;
42600;SDS011;28229;48.856;9.088;2023-03-12T00:14:15;8.67;;;4.30;;
42600;SDS011;28229;48.856;9.088;2023-03-12T00:16:42;8.63;;;5.00;;
42600;SDS011;28229;48.856;9.088;2023-03-12T00:19:11;7.50;;;5.43;;
42600;SDS011;28229;48.856;9.088;2023-03-12T00:21:38;6.37;;;5.00;;
42600;SDS011;28229;48.856;9.088;2023-03-12T00:24:05;6.70;;;4.70;;
42600;SDS011;28229;48.856;9.088;2023-03-12T00:26:32;7.27;;;4.80;;
42600;SDS011;28229;48.856;9.088;2023-03-12T00:28:58;5.80;;;4.50;;
42600;SDS011;28229;48.856;9.088;2023-03-12T00:31:26;6.87;;;4.87;;
42600;SDS011;28229;48.856;9.088;2023-03-12T00:33:54;8.50;;;5.03;;
42600;SDS011;28229;48.856;9.088;2023-03-12T00:36:22;6.87;;;4.80;;
42600;SDS011;28229;48.856;9.088;2023-03-12T00:38:53;8.03;;;4.87;;
42600;SDS011;28229;48.856;9.088;2023-03-12T00:41:20;7.57;;;5.10;;
42600;SDS011;28229;48.856;9.088;2023-03-12T00:43:48;8.27;;;4.80;;
42600;SDS011;28229;48.856;9.088;2023-03-12T00:46:15;6.37;;;4.53;;
42600;SDS011;28229;48.856;9.088;2023-03-12T00:48:42;9.63;;;5.43;;
42600;SDS011;28229;48.856;9.088;2023-03-12T00:51:09;8.60;;;5.20;;
42600;SDS011;28229;48.856;9.088;2023-03-12T00:53:35;7.43;;;5.13;;
42600;SDS011;28229;48.856;9.088;2023-03-12T00:56:03;7.87;;;4.93;;
42600;SDS011;28229;48.856;9.088;2023-03-12T00:58:30;7.83;;;4.60;;
42600;SDS011;28229;48.856;9.088;2023-03-12T01:00:56;7.80;;;4.57;;
42600;SDS011;28229;48.856;9.088;2023-03-12T01:03:23;8.20;;;4.80;;
42600;SDS011;28229;48.856;9.088;2023-03-12T01:05:49;7.27;;;4.60;;
42600;SDS011;28229;48.856;9.088;2023-03-12T01:08:19;6.47;;;4.27;;
42600;SDS011;28229;48.856;9.088;2023-03-12T01:10:48;7.73;;;4.73;;
42600;SDS011;28229;48.856;9.088;2023-03-12T01:13:14;7.47;;;4.40;;
42600;SDS011;28229;48.856;9.088;2023-03-12T01:15:40;7.20;;;4.37;;
42600;SDS011;28229;48.856;9.088;2023-03-12T01:18:06;9.77;;;5.17;;
42600;SDS011;28229;48.856;9.088;2023-03-12T01:20:33;8.73;;;4.90;;
42600;SDS011;28229;48.856;9.088;2023-03-12T01:23:01;5.57;;;4.40;;
42600;SDS011;28229;48.856;9.088;2023-03-12T01:25:27;9.23;;;4.90;;
42600;SDS011;28229;48.856;9.088;2023-03-12T01:27:54;8.07;;;5.20;;
42600;SDS011;28229;48.856;9.088;2023-03-12T01:30:20;8.77;;;4.73;;
42600;SDS011;28229;48.856;9.088;2023-03-12T01:32:46;7.97;;;5.03;;
42600;SDS011;28229;48.856;9.088;2023-03-12T01:35:12;7.37;;;5.20;;
42600;SDS011;28229;48.856;9.088;2023-03-12T01:37:38;9.30;;;5.33;;
42600;SDS011;28229;48.856;9.088;2023-03-12T01:40:05;6.90;;;4.80;;
42600;SDS011;28229;48.856;9.088;2023-03-12T01:42:31;6.63;;;4.60;;
42600;SDS011;28229;48.856;9.088;2023-03-12T01:47:30;7.97;;;4.70;;
42600;SDS011;28229;48.856;9.088;2023-03-12T01:49:57;6.93;;;4.50;;
42600;SDS011;28229;48.856;9.088;2023-03-12T01:52:32;7.10;;;4.60;;
42600;SDS011;28229;48.856;9.088;2023-03-12T01:55:06;6.00;;;4.53;;
42600;SDS011;28229;48.856;9.088;2023-03-12T01:57:51;6.33;;;4.33;;
42600;SDS011;28229;48.856;9.088;2023-03-12T02:00:25;5.53;;;4.00;;
42600;SDS011;28229;48.856;9.088;2023-03-12T02:02:56;6.27;;;4.30;;
42600;SDS011;28229;48.856;9.088;2023-03-12T02:05:33;7.20;;;4.07;;
42600;SDS011;28229;48.856;9.088;2023-03-12T02:08:18;6.53;;;4.40;;
42600;SDS011;28229;48.856;9.088;2023-03-12T02:10:44;7.43;;;4.33;;
42600;SDS011;28229;48.856;9.088;2023-03-12T02:13:11;7.67;;;4.63;;
42600;SDS011;28229;48.856;9.088;2023-03-12T02:15:43;7.07;;;4.37;;
42600;SDS011;28229;48.856;9.088;2023-03-12T02:18:10;7.33;;;4.20;;
42600;SDS011;28229;48.856;9.088;2023-03-12T02:26:23;8.27;;;4.80;;
42600;SDS011;28229;48.856;9.088;2023-03-12T02:28:52;7.27;;;4.60;;
42600;SDS011;28229;48.856;9.088;2023-03-12T02:31:21;8.00;;;4.33;;
42600;SDS011;28229;48.856;9.088;2023-03-12T02:33:51;6.53;;;4.67;;
42600;SDS011;28229;48.856;9.088;2023-03-12T02:36:33;7.30;;;4.77;;
42600;SDS011;28229;48.856;9.088;2023-03-12T02:38:59;6.57;;;4.90;;
42600;SDS011;28229;48.856;9.088;2023-03-12T02:41:33;6.63;;;4.80;;
42600;SDS011;28229;48.856;9.088;2023-03-12T02:44:04;9.00;;;4.93;;
42600;SDS011;28229;48.856;9.088;2023-03-12T02:46:43;6.80;;;4.97;;
42600;SDS011;28229;48.856;9.088;2023-03-12T02:49:14;7.87;;;5.07;;
42600;SDS011;28229;48.856;9.088;2023-03-12T02:51:41;9.70;;;5.40;;
42600;SDS011;28229;48.856;9.088;2023-03-12T02:54:09;7.97;;;5.47;;
42600;SDS011;28229;48.856;9.088;2023-03-12T02:56:37;10.63;;;5.63;;
42600;SDS011;28229;48.856;9.088;2023-03-12T02:59:05;7.43;;;5.30;;
42600;SDS011;28229;48.856;9.088;2023-03-12T03:01:35;8.27;;;5.87;;
42600;SDS011;28229;48.856;9.088;2023-03-12T03:04:03;9.83;;;5.40;;
42600;SDS011;28229;48.856;9.088;2023-03-12T03:06:29;8.43;;;5.40;;
42600;SDS011;28229;48.856;9.088;2023-03-12T03:08:57;8.93;;;5.90;;
42600;SDS011;28229;48.856;9.088;2023-03-12T03:11:24;7.33;;;5.10;;
42600;SDS011;28229;48.856;9.088;2023-03-12T03:13:53;10.03;;;5.40;;
42600;SDS011;28229;48.856;9.088;2023-03-12T03:16:20;9.47;;;5.60;;
42600;SDS011;28229;48.856;9.088;2023-03-12T03:18:47;8.80;;;5.70;;
42600;SDS011;28229;48.856;9.088;2023-03-12T03:21:14;11.73;;;5.87;;
42600;SDS011;28229;48.856;9.088;2023-03-12T03:23:46;8.80;;;5.77;;
42600;SDS011;28229;48.856;9.088;2023-03-12T03:26:14;9.30;;;5.80;;
42600;SDS011;28229;48.856;9.088;2023-03-12T03:28:41;6.47;;;4.87;;
42600;SDS011;28229;48.856;9.088;2023-03-12T03:31:08;7.50;;;5.30;;
42600;SDS011;28229;48.856;9.088;2023-03-12T03:33:37;7.00;;;5.37;;
42600;SDS011;28229;48.856;9.088;2023-03-12T03:36:08;7.70;;;5.43;;
42600;SDS011;28229;48.856;9.088;2023-03-12T03:38:41;10.20;;;5.40;;
42600;SDS011;28229;48.856;9.088;2023-03-12T03:41:12;9.97;;;5.23;;
42600;SDS011;28229;48.856;9.088;2023-03-12T03:43:42;8.07;;;5.70;;
42600;SDS011;28229;48.856;9.088;2023-03-12T03:46:09;8.77;;;5.67;;
42600;SDS011;28229;48.856;9.088;2023-03-12T03:48:39;9.60;;;5.30;;
42600;SDS011;28229;48.856;9.088;2023-03-12T03:51:08;10.00;;;5.40;;
42600;SDS011;28229;48.856;9.088;2023-03-12T03:53:38;9.67;;;5.97;;
42600;SDS011;28229;48.856;9.088;2023-03-12T03:56:10;8.43;;;5.80;;
42600;SDS011;28229;48.856;9.088;2023-03-12T03:58:42;7.83;;;5.83;;
42600;SDS011;28229;48.856;9.088;2023-03-12T04:01:08;9.37;;;5.83;;
42600;SDS011;28229;48.856;9.088;2023-03-12T04:03:35;10.33;;;5.83;;
42600;SDS011;28229;48.856;9.088;2023-03-12T04:06:04;7.27;;;5.10;;
42600;SDS011;28229;48.856;9.088;2023-03-12T04:08:32;6.60;;;5.20;;
42600;SDS011;28229;48.856;9.088;2023-03-12T04:11:08;10.10;;;5.90;;
42600;SDS011;28229;48.856;9.088;2023-03-12T04:13:37;10.17;;;6.17;;
42600;SDS011;28229;48.856;9.088;2023-03-12T04:16:04;11.23;;;6.23;;
42600;SDS011;28229;48.856;9.088;2023-03-12T04:18:31;10.47;;;5.80;;
42600;SDS011;28229;48.856;9.088;2023-03-12T04:20:59;8.60;;;5.07;;
42600;SDS011;28229;48.856;9.088;2023-03-12T04:23:26;7.43;;;5.33;;
42600;SDS011;28229;48.856;9.088;2023-03-12T04:25:53;9.10;;;5.30;;
42600;SDS011;28229;48.856;9.088;2023-03-12T04:28:19;6.20;;;5.30;;
42600;SDS011;28229;48.856;9.088;2023-03-12T04:30:53;8.20;;;5.60;;
42600;SDS011;28229;48.856;9.088;2023-03-12T04:33:20;7.90;;;5.63;;
42600;SDS011;28229;48.856;9.088;2023-03-12T04:35:49;10.83;;;5.77;;
42600;SDS011;28229;48.856;9.088;2023-03-12T04:38:18;6.90;;;5.30;;
42600;SDS011;28229;48.856;9.088;2023-03-12T04:40:46;7.70;;;5.60;;
42600;SDS011;28229;48.856;9.088;2023-03-12T04:43:12;8.57;;;6.00;;
42600;SDS011;28229;48.856;9.088;2023-03-12T04:45:39;6.97;;;5.70;;
42600;SDS011;28229;48.856;9.088;2023-03-12T04:48:05;10.00;;;5.80;;
42600;SDS011;28229;48.856;9.088;2023-03-12T04:50:31;8.57;;;5.60;;
42600;SDS011;28229;48.856;9.088;2023-03-12T04:52:58;8.80;;;5.50;;
42600;SDS011;28229;48.856;9.088;2023-03-12T04:55:24;8.63;;;5.17;;
42600;SDS011;28229;48.856;9.088;2023-03-12T04:57:51;8.07;;;5.07;;
42600;SDS011;28229;48.856;9.088;2023-03-12T05:00:17;8.37;;;5.23;;
42600;SDS011;28229;48.856;9.088;2023-03-12T05:02:45;8.20;;;5.47;;
42600;SDS011;28229;48.856;9.088;2023-03-12T05:05:11;9.40;;;5.33;;
42600;SDS011;28229;48.856;9.088;2023-03-12T05:07:39;8.73;;;5.90;;
42600;SDS011;28229;48.856;9.088;2023-03-12T05:10:05;9.57;;;5.00;;
42600;SDS011;28229;48.856;9.088;2023-03-12T05:12:32;7.40;;;5.47;;
42600;SDS011;28229;48.856;9.088;2023-03-12T05:14:58;7.33;;;5.50;;
42600;SDS011;28229;48.856;9.088;2023-03-12T05:17:26;6.93;;;4.73;;
42600;SDS011;28229;48.856;9.088;2023-03-12T05:19:52;6.50;;;4.97;;
42600;SDS011;28229;48.856;9.088;2023-03-12T05:22:19;7.63;;;5.17;;
42600;SDS011;28229;48.856;9.088;2023-03-12T05:24:45;7.40;;;5.53;;
42600;SDS011;28229;48.856;9.088;2023-03-12T05:27:21;8.47;;;5.23;;
42600;SDS011;28229;48.856;9.088;2023-03-12T05:29:51;11.47;;;5.73;;
42600;SDS011;28229;48.856;9.088;2023-03-12T05:32:19;9.07;;;5.63;;
42600;SDS011;28229;48.856;9.088;2023-03-12T05:34:46;7.43;;;5.20;;
42600;SDS011;28229;48.856;9.088;2023-03-12T05:37:12;10.27;;;5.80;;
42600;SDS011;28229;48.856;9.088;2023-03-12T05:39:39;7.83;;;5.27;;
42600;SDS011;28229;48.856;9.088;2023-03-12T05:42:15;8.63;;;6.60;;
42600;SDS011;28229;48.856;9.088;2023-03-12T05:44:41;8.23;;;6.03;;
42600;SDS011;28229;48.856;9.088;2023-03-12T05:47:10;8.80;;;5.77;;
42600;SDS011;28229;48.856;9.088;2023-03-12T05:49:41;9.87;;;5.47;;
42600;SDS011;28229;48.856;9.088;2023-03-12T05:52:09;8.40;;;5.17;;
42600;SDS011;28229;48.856;9.088;2023-03-12T05:54:36;8.53;;;5.37;;
42600;SDS011;28229;48.856;9.088;2023-03-12T05:57:04;6.87;;;5.30;;
42600;SDS011;28229;48.856;9.088;2023-03-12T05:59:30;8.73;;;5.70;;
42600;SDS011;28229;48.856;9.088;2023-03-12T06:01:57;7.23;;;5.97;;
42600;SDS011;28229;48.856;9.088;2023-03-12T06:04:23;8.83;;;6.43;;
42600;SDS011;28229;48.856;9.088;2023-03-12T06:06:51;8.07;;;5.77;;
42600;SDS011;28229;48.856;9.088;2023-03-12T06:09:17;10.63;;;6.40;;
42600;SDS011;28229;48.856;9.088;2023-03-12T06:11:44;8.50;;;6.13;;
42600;SDS011;28229;48.856;9.088;2023-03-12T06:14:10;9.07;;;5.83;;
42600;SDS011;28229;48.856;9.088;2023-03-12T06:16:37;7.73;;;5.50;;
42600;SDS011;28229;48.856;9.088;2023-03-12T06:19:04;7.73;;;5.30;;
42600;SDS011;28229;48.856;9.088;2023-03-12T06:21:32;9.73;;;5.40;;
42600;SDS011;28229;48.856;9.088;2023-03-12T06:24:01;8.10;;;5.83;;
42600;SDS011;28229;48.856;9.088;2023-03-12T06:26:32;9.53;;;5.93;;
42600;SDS011;28229;48.856;9.088;2023-03-12T06:28:59;10.17;;;6.27;;
42600;SDS011;28229;48.856;9.088;2023-03-12T06:31:25;9.63;;;6.50;;
42600;SDS011;28229;48.856;9.088;2023-03-12T06:33:51;9.77;;;5.70;;
42600;SDS011;28229;48.856;9.088;2023-03-12T06:36:18;8.67;;;5.27;;
42600;SDS011;28229;48.856;9.088;2023-03-12T06:38:45;8.97;;;5.63;;
42600;SDS011;28229;48.856;9.088;2023-03-12T06:41:12;8.47;;;5.47;;
42600;SDS011;28229;48.856;9.088;2023-03-12T06:43:40;11.07;;;7.17;;
42600;SDS011;28229;48.856;9.088;2023-03-12T06:46:07;9.67;;;6.33;;
42600;SDS011;28229;48.856;9.088;2023-03-12T06:48:36;11.00;;;6.90;;
42600;SDS011;28229;48.856;9.088;2023-03-12T06:51:06;8.97;;;6.10;;
42600;SDS011;28229;48.856;9.088;2023-03-12T06:53:34;8.13;;;6.37;;
42600;SDS011;28229;48.856;9.088;2023-03-12T06:56:00;7.30;;;5.87;;
42600;SDS011;28229;48.856;9.088;2023-03-12T06:58:27;8.07;;;5.43;;
42600;SDS011;28229;48.856;9.088;2023-03-12T07:00:53;7.30;;;5.33;;
42600;SDS011;28229;48.856;9.088;2023-03-12T07:03:20;7.70;;;5.57;;
42600;SDS011;28229;48.856;9.088;2023-03-12T07:05:47;8.93;;;5.40;;
42600;SDS011;28229;48.856;9.088;2023-03-12T07:08:15;6.97;;;4.97;;
42600;SDS011;28229;48.856;9.088;2023-03-12T07:10:42;6.87;;;5.27;;
42600;SDS011;28229;48.856;9.088;2023-03-12T07:13:08;8.77;;;5.73;;
42600;SDS011;28229;48.856;9.088;2023-03-12T07:15:34;8.13;;;5.90;;
42600;SDS011;28229;48.856;9.088;2023-03-12T07:18:03;8.93;;;5.60;;
42600;SDS011;28229;48.856;9.088;2023-03-12T07:20:30;7.90;;;5.63;;
42600;SDS011;28229;48.856;9.088;2023-03-12T07:22:58;10.53;;;6.20;;
42600;SDS011;28229;48.856;9.088;2023-03-12T07:25:25;7.80;;;5.97;;
42600;SDS011;28229;48.856;9.088;2023-03-12T07:27:51;9.00;;;5.50;;
42600;SDS011;28229;48.856;9.088;2023-03-12T07:30:17;8.03;;;5.40;;
42600;SDS011;28229;48.856;9.088;2023-03-12T07:32:43;7.80;;;5.37;;
42600;SDS011;28229;48.856;9.088;2023-03-12T07:35:09;8.10;;;5.30;;
42600;SDS011;28229;48.856;9.088;2023-03-12T07:37:36;7.33;;;5.37;;
42600;SDS011;28229;48.856;9.088;2023-03-12T07:40:02;5.97;;;5.20;;
42600;SDS011;28229;48.856;9.088;2023-03-12T07:42:32;7.13;;;5.10;;
42600;SDS011;28229;48.856;9.088;2023-03-12T07:44:59;5.80;;;4.80;;
42600;SDS011;28229;48.856;9.088;2023-03-12T07:47:25;6.67;;;4.67;;
42600;SDS011;28229;48.856;9.088;2023-03-12T07:49:51;8.53;;;6.00;;
42600;SDS011;28229;48.856;9.088;2023-03-12T07:52:18;6.57;;;5.07;;
42600;SDS011;28229;48.856;9.088;2023-03-12T07:54:45;6.00;;;4.43;;
42600;SDS011;28229;48.856;9.088;2023-03-12T07:57:11;5.03;;;4.47;;
42600;SDS011;28229;48.856;9.088;2023-03-12T07:59:39;6.87;;;4.83;;
42600;SDS011;28229;48.856;9.088;2023-03-12T08:02:07;5.50;;;4.47;;
42600;SDS011;28229;48.856;9.088;2023-03-12T08:04:35;6.53;;;4.70;;
42600;SDS011;28229;48.856;9.088;2023-03-12T08:07:02;7.17;;;5.23;;
42600;SDS011;28229;48.856;9.088;2023-03-12T08:09:28;8.77;;;5.03;;
42600;SDS011;28229;48.856;9.088;2023-03-12T08:11:54;6.73;;;4.83;;
42600;SDS011;28229;48.856;9.088;2023-03-12T08:14:20;6.93;;;4.77;;
42600;SDS011;28229;48.856;9.088;2023-03-12T08:16:47;6.70;;;4.67;;
42600;SDS011;28229;48.856;9.088;2023-03-12T08:19:13;7.43;;;5.20;;
42600;SDS011;28229;48.856;9.088;2023-03-12T08:21:39;7.50;;;4.87;;
42600;SDS011;28229;48.856;9.088;2023-03-12T08:24:05;5.10;;;4.60;;
42600;SDS011;28229;48.856;9.088;2023-03-12T08:26:32;6.93;;;4.80;;
42600;SDS011;28229;48.856;9.088;2023-03-12T08:28:58;5.57;;;4.67;;
42600;SDS011;28229;48.856;9.088;2023-03-12T08:31:28;7.30;;;5.10;;
42600;SDS011;28229;48.856;9.088;2023-03-12T08:33:54;6.20;;;4.90;;
42600;SDS011;28229;48.856;9.088;2023-03-12T08:36:20;7.67;;;5.97;;
42600;SDS011;28229;48.856;9.088;2023-03-12T08:38:46;10.37;;;6.00;;
42600;SDS011;28229;48.856;9.088;2023-03-12T08:41:13;8.60;;;5.80;;
42600;SDS011;28229;48.856;9.088;2023-03-12T08:43:39;6.97;;;5.10;;
42600;SDS011;28229;48.856;9.088;2023-03-12T08:46:05;6.53;;;5.83;;
42600;SDS011;28229;48.856;9.088;2023-03-12T08:48:31;7.77;;;5.83;;
42600;SDS011;28229;48.856;9.088;2023-03-12T08:50:58;7.40;;;5.80;;
42600;SDS011;28229;48.856;9.088;2023-03-12T08:53:29;7.70;;;5.80;;
42600;SDS011;28229;48.856;9.088;2023-03-12T08:55:57;7.13;;;6.03;;
42600;SDS011;28229;48.856;9.088;2023-03-12T08:58:24;8.53;;;5.97;;
42600;SDS011;28229;48.856;9.088;2023-03-12T09:00:51;10.47;;;6.23;;
42600;SDS011;28229;48.856;9.088;2023-03-12T09:03:17;8.03;;;6.60;;
42600;SDS011;28229;48.856;9.088;2023-03-12T09:05:44;8.60;;;5.90;;
42600;SDS011;28229;48.856;9.088;2023-03-12T09:08:10;9.67;;;6.53;;
42600;SDS011;28229;48.856;9.088;2023-03-12T09:10:36;8.63;;;6.10;;
42600;SDS011;28229;48.856;9.088;2023-03-12T09:13:05;7.20;;;5.97;;
42600;SDS011;28229;48.856;9.088;2023-03-12T09:15:32;9.30;;;6.20;;
42600;SDS011;28229;48.856;9.088;2023-03-12T09:17:58;9.13;;;5.83;;
42600;SDS011;28229;48.856;9.088;2023-03-12T09:20:25;8.87;;;5.83;;
42600;SDS011;28229;48.856;9.088;2023-03-12T09:22:51;7.17;;;5.93;;
42600;SDS011;28229;48.856;9.088;2023-03-12T09:25:17;8.97;;;6.00;;
42600;SDS011;28229;48.856;9.088;2023-03-12T09:27:45;6.77;;;5.63;;
42600;SDS011;28229;48.856;9.088;2023-03-12T09:30:13;8.63;;;6.67;;
42600;SDS011;28229;48.856;9.088;2023-03-12T09:32:41;7.00;;;5.90;;
42600;SDS011;28229;48.856;9.088;2023-03-12T09:35:11;8.57;;;6.23;;
42600;SDS011;28229;48.856;9.088;2023-03-12T09:37:39;9.20;;;6.77;;
42600;SDS011;28229;48.856;9.088;2023-03-12T09:40:06;8.30;;;5.93;;
42600;SDS011;28229;48.856;9.088;2023-03-12T09:42:44;7.13;;;5.87;;
42600;SDS011;28229;48.856;9.088;2023-03-12T09:49:18;8.67;;;6.87;;
42600;SDS011;28229;48.856;9.088;2023-03-12T09:51:54;10.77;;;6.97;;
42600;SDS011;28229;48.856;9.088;2023-03-12T09:54:35;7.60;;;6.50;;
42600;SDS011;28229;48.856;9.088;2023-03-12T09:57:11;12.47;;;7.60;;
42600;SDS011;28229;48.856;9.088;2023-03-12T09:59:45;19.27;;;10.30;;
42600;SDS011;28229;48.856;9.088;2023-03-12T10:02:29;11.73;;;8.10;;
42600;SDS011;28229;48.856;9.088;2023-03-12T10:07:41;8.97;;;6.50;;
42600;SDS011;28229;48.856;9.088;2023-03-12T10:10:40;4.97;;;4.30;;
42600;SDS011;28229;48.856;9.088;2023-03-12T10:13:55;5.33;;;4.40;;
42600;SDS011;28229;48.856;9.088;2023-03-12T10:24:57;4.63;;;3.60;;
42600;SDS011;28229;48.856;9.088;2023-03-12T10:27:33;5.10;;;4.50;;
42600;SDS011;28229;48.856;9.088;2023-03-12T10:30:02;4.33;;;3.80;;
42600;SDS011;28229;48.856;9.088;2023-03-12T10:32:39;4.57;;;3.83;;
42600;SDS011;28229;48.856;9.088;2023-03-12T10:35:29;3.60;;;3.30;;
42600;SDS011;28229;48.856;9.088;2023-03-12T10:37:57;4.10;;;3.47;;
42600;SDS011;28229;48.856;9.088;2023-03-12T10:40:26;3.90;;;3.60;;
42600;SDS011;28229;48.856;9.088;2023-03-12T10:42:54;4.03;;;3.63;;
42600;SDS011;28229;48.856;9.088;2023-03-12T10:48:18;4.73;;;3.60;;
42600;SDS011;28229;48.856;9.088;2023-03-12T10:53:29;2.40;;;2.20;;
42600;SDS011;28229;48.856;9.088;2023-03-12T10:58:29;1.97;;;1.80;;
42600;SDS011;28229;48.856;9.088;2023-03-12T11:01:05;2.47;;;1.87;;
42600;SDS011;28229;48.856;9.088;2023-03-12T11:03:44;2.60;;;1.70;;
42600;SDS011;28229;48.856;9.088;2023-03-12T11:06:19;1.97;;;1.33;;
42600;SDS011;28229;48.856;9.088;2023-03-12T11:09:01;1.80;;;1.70;;
42600;SDS011;28229;48.856;9.088;2023-03-12T11:11:31;2.10;;;1.40;;
42600;SDS011;28229;48.856;9.088;2023-03-12T11:14:06;1.97;;;1.70;;
42600;SDS011;28229;48.856;9.088;2023-03-12T11:16:44;3.00;;;1.47;;
42600;SDS011;28229;48.856;9.088;2023-03-12T11:19:11;1.57;;;1.47;;
42600;SDS011;28229;48.856;9.088;2023-03-12T11:21:39;2.20;;;1.70;;
42600;SDS011;28229;48.856;9.088;2023-03-12T11:24:21;1.90;;;1.43;;
42600;SDS011;28229;48.856;9.088;2023-03-12T11:26:51;1.80;;;1.47;;
42600;SDS011;28229;48.856;9.088;2023-03-12T11:29:26;2.33;;;1.50;;
42600;SDS011;28229;48.856;9.088;2023-03-12T11:34:45;2.93;;;1.47;;
42600;SDS011;28229;48.856;9.088;2023-03-12T11:37:17;2.70;;;1.43;;
42600;SDS011;28229;48.856;9.088;2023-03-12T11:48:13;2.77;;;1.00;;
42600;SDS011;28229;48.856;9.088;2023-03-12T11:53:51;1.93;;;1.10;;
42600;SDS011;28229;48.856;9.088;2023-03-12T11:56:25;1.20;;;1.10;;
42600;SDS011;28229;48.856;9.088;2023-03-12T12:01:30;2.00;;;1.00;;
42600;SDS011;28229;48.856;9.088;2023-03-12T12:04:22;2.13;;;1.20;;
42600;SDS011;28229;48.856;9.088;2023-03-12T12:07:37;1.80;;;1.30;;
42600;SDS011;28229;48.856;9.088;2023-03-12T12:09:55;3.23;;;1.87;;
42600;SDS011;28229;48.856;9.088;2023-03-12T12:26:23;3.13;;;1.50;;
42600;SDS011;28229;48.856;9.088;2023-03-12T12:29:20;2.47;;;1.37;;
42600;SDS011;28229;48.856;9.088;2023-03-12T12:31:57;4.33;;;1.50;;
42600;SDS011;28229;48.856;9.088;2023-03-12T12:37:20;5.10;;;1.60;;
42600;SDS011;28229;48.856;9.088;2023-03-12T12:42:55;3.07;;;1.50;;
42600;SDS011;28229;48.856;9.088;2023-03-12T12:45:28;2.53;;;1.33;;
42600;SDS011;28229;48.856;9.088;2023-03-12T12:50:57;3.63;;;1.53;;
42600;SDS011;28229;48.856;9.088;2023-03-12T12:53:29;4.43;;;1.70;;
42600;SDS011;28229;48.856;9.088;2023-03-12T12:56:08;3.33;;;1.40;;
42600;SDS011;28229;48.856;9.088;2023-03-12T13:01:09;4.27;;;1.50;;
42600;SDS011;28229;48.856;9.088;2023-03-12T13:03:36;4.07;;;1.57;;
42600;SDS011;28229;48.856;9.088;2023-03-12T13:06:04;3.70;;;1.57;;
42600;SDS011;28229;48.856;9.088;2023-03-12T13:13:42;2.07;;;1.20;;
42600;SDS011;28229;48.856;9.088;2023-03-12T13:18:59;2.73;;;1.30;;
42600;SDS011;28229;48.856;9.088;2023-03-12T13:26:48;4.33;;;1.30;;
42600;SDS011;28229;48.856;9.088;2023-03-12T13:29:34;2.87;;;1.23;;
42600;SDS011;28229;48.856;9.088;2023-03-12T13:32:03;2.93;;;1.30;;
42600;SDS011;28229;48.856;9.088;2023-03-12T13:34:40;3.57;;;1.20;;
42600;SDS011;28229;48.856;9.088;2023-03-12T13:37:18;2.80;;;1.37;;
42600;SDS011;28229;48.856;9.088;2023-03-12T13:40:13;7.80;;;1.50;;
42600;SDS011;28229;48.856;9.088;2023-03-12T13:46:05;7.20;;;1.97;;
42600;SDS011;28229;48.856;9.088;2023-03-12T13:48:46;4.23;;;1.77;;
42600;SDS011;28229;48.856;9.088;2023-03-12T13:51:15;4.70;;;1.33;;
42600;SDS011;28229;48.856;9.088;2023-03-12T13:53:48;7.60;;;1.90;;
42600;SDS011;28229;48.856;9.088;2023-03-12T13:56:18;7.27;;;1.87;;
42600;SDS011;28229;48.856;9.088;2023-03-12T14:01:28;3.67;;;1.57;;
42600;SDS011;28229;48.856;9.088;2023-03-12T14:04:04;4.77;;;1.50;;
42600;SDS011;28229;48.856;9.088;2023-03-12T14:09:49;2.90;;;1.57;;
42600;SDS011;28229;48.856;9.088;2023-03-12T14:12:21;5.30;;;1.57;;
42600;SDS011;28229;48.856;9.088;2023-03-12T14:17:23;3.97;;;1.40;;
42600;SDS011;28229;48.856;9.088;2023-03-12T14:19:56;5.27;;;1.60;;
42600;SDS011;28229;48.856;9.088;2023-03-12T14:22:35;5.23;;;1.53;;
42600;SDS011;28229;48.856;9.088;2023-03-12T14:25:05;5.80;;;1.57;;
42600;SDS011;28229;48.856;9.088;2023-03-12T14:27:39;4.03;;;1.50;;
42600;SDS011;28229;48.856;9.088;2023-03-12T14:32:37;3.77;;;1.70;;
42600;SDS011;28229;48.856;9.088;2023-03-12T14:38:33;5.67;;;1.67;;
42600;SDS011;28229;48.856;9.088;2023-03-12T14:43:32;3.03;;;1.63;;
42600;SDS011;28229;48.856;9.088;2023-03-12T14:46:03;3.97;;;1.30;;
42600;SDS011;28229;48.856;9.088;2023-03-12T14:48:37;3.23;;;1.77;;
42600;SDS011;28229;48.856;9.088;2023-03-12T14:51:04;4.43;;;1.50;;
42600;SDS011;28229;48.856;9.088;2023-03-12T14:53:33;4.37;;;1.83;;
42600;SDS011;28229;48.856;9.088;2023-03-12T14:58:30;3.67;;;1.20;;
42600;SDS011;28229;48.856;9.088;2023-03-12T15:00:59;3.53;;;1.43;;
42600;SDS011;28229;48.856;9.088;2023-03-12T15:03:28;2.97;;;1.50;;
42600;SDS011;28229;48.856;9.088;2023-03-12T15:05:58;5.73;;;1.80;;
42600;SDS011;28229;48.856;9.088;2023-03-12T15:08:29;4.50;;;1.60;;
42600;SDS011;28229;48.856;9.088;2023-03-12T15:10:59;5.73;;;1.63;;
42600;SDS011;28229;48.856;9.088;2023-03-12T15:13:26;2.30;;;1.23;;
42600;SDS011;28229;48.856;9.088;2023-03-12T15:15:53;3.77;;;1.40;;
42600;SDS011;28229;48.856;9.088;2023-03-12T15:18:24;5.80;;;1.33;;
42600;SDS011;28229;48.856;9.088;2023-03-12T15:20:53;3.53;;;1.47;;
42600;SDS011;28229;48.856;9.088;2023-03-12T15:23:21;4.70;;;1.70;;
42600;SDS011;28229;48.856;9.088;2023-03-12T15:26:11;3.23;;;1.37;;
42600;SDS011;28229;48.856;9.088;2023-03-12T15:28:54;3.80;;;1.50;;
42600;SDS011;28229;48.856;9.088;2023-03-12T15:31:42;3.40;;;1.50;;
42600;SDS011;28229;48.856;9.088;2023-03-12T15:34:13;4.30;;;1.63;;
42600;SDS011;28229;48.856;9.088;2023-03-12T15:36:57;4.43;;;1.53;;
42600;SDS011;28229;48.856;9.088;2023-03-12T15:39:31;3.97;;;1.53;;
42600;SDS011;28229;48.856;9.088;2023-03-12T15:42:00;3.80;;;1.20;;
42600;SDS011;28229;48.856;9.088;2023-03-12T15:44:44;3.30;;;1.40;;
42600;SDS011;28229;48.856;9.088;2023-03-12T15:47:27;2.43;;;1.10;;
42600;SDS011;28229;48.856;9.088;2023-03-12T15:49:57;4.83;;;1.57;;
42600;SDS011;28229;48.856;9.088;2023-03-12T15:52:30;2.67;;;1.10;;
42600;SDS011;28229;48.856;9.088;2023-03-12T16:00:15;4.30;;;1.40;;
42600;SDS011;28229;48.856;9.088;2023-03-12T16:05:24;5.00;;;1.70;;
42600;SDS011;28229;48.856;9.088;2023-03-12T16:07:53;4.13;;;1.60;;
42600;SDS011;28229;48.856;9.088;2023-03-12T16:10:20;3.33;;;1.40;;
42600;SDS011;28229;48.856;9.088;2023-03-12T16:12:49;3.77;;;1.80;;
42600;SDS011;28229;48.856;9.088;2023-03-12T16:15:19;5.33;;;1.40;;
42600;SDS011;28229;48.856;9.088;2023-03-12T16:17:50;4.53;;;2.00;;
42600;SDS011;28229;48.856;9.088;2023-03-12T16:20:17;5.73;;;1.80;;
42600;SDS011;28229;48.856;9.088;2023-03-12T16:22:44;3.13;;;1.47;;
42600;SDS011;28229;48.856;9.088;2023-03-12T16:25:10;6.90;;;2.20;;
42600;SDS011;28229;48.856;9.088;2023-03-12T16:27:40;6.23;;;2.07;;
42600;SDS011;28229;48.856;9.088;2023-03-12T16:30:33;5.70;;;1.93;;
42600;SDS011;28229;48.856;9.088;2023-03-12T16:33:01;4.67;;;2.03;;
42600;SDS011;28229;48.856;9.088;2023-03-12T16:35:28;5.40;;;2.13;;
42600;SDS011;28229;48.856;9.088;2023-03-12T16:37:58;5.33;;;1.87;;
42600;SDS011;28229;48.856;9.088;2023-03-12T16:40:29;3.87;;;1.70;;
42600;SDS011;28229;48.856;9.088;2023-03-12T16:42:58;5.67;;;2.30;;
42600;SDS011;28229;48.856;9.088;2023-03-12T16:45:28;7.07;;;1.90;;
42600;SDS011;28229;48.856;9.088;2023-03-12T16:47:59;9.57;;;3.33;;
42600;SDS011;28229;48.856;9.088;2023-03-12T16:50:27;19.03;;;6.37;;
42600;SDS011;28229;48.856;9.088;2023-03-12T16:52:54;15.80;;;5.73;;
42600;SDS011;28229;48.856;9.088;2023-03-12T16:55:21;4.77;;;2.40;;
42600;SDS011;28229;48.856;9.088;2023-03-12T16:57:51;5.83;;;2.27;;
42600;SDS011;28229;48.856;9.088;2023-03-12T17:00:21;6.63;;;2.40;;